Time;durP1;ratioP1;P1;durP2;ratioP2;P2;SDS_P1;SDS_P2;PMS_P1;PMS_P2;Temp;Humidity;BMP_temperature;BMP_pressure;BME280_temperature;BME280_humidity;BME280_pressure;Samples;Min_cycle;Max_cycle;Signal;HPM_P1;HPM_P2
2023/05/11 00:00:08;;;;;;;9.38;8.10;;;12.80;99.90;;;;;;2102345;28;20518;-68
2023/05/11 00:01:10;;;;;;;10.90;7.88;;;12.80;99.90;;;;;;2101963;27;20036;-69
2023/05/11 00:02:14;;;;;;;10.70;8.13;;;12.80;99.90;;;;;;2122273;27;20070;-68
2023/05/11 00:03:14;;;;;;;10.15;8.00;;;12.70;99.90;;;;;;2120342;27;20068;-68
2023/05/11 00:04:15;;;;;;;9.35;7.93;;;12.70;99.90;;;;;;2105084;28;20032;-68
2023/05/11 00:05:15;;;;;;;10.30;8.15;;;12.70;99.90;;;;;;2106962;28;20064;-68
2023/05/11 00:06:16;;;;;;;10.80;7.63;;;12.70;99.90;;;;;;2100743;28;20161;-68
2023/05/11 00:07:16;;;;;;;10.05;7.72;;;12.70;99.90;;;;;;2109344;27;20430;-68
2023/05/11 00:08:18;;;;;;;9.65;7.90;;;12.60;99.90;;;;;;2102988;27;20368;-68
2023/05/11 00:09:19;;;;;;;10.38;8.15;;;12.70;99.90;;;;;;2101256;28;20031;-69
2023/05/11 00:10:20;;;;;;;9.90;8.02;;;12.60;99.90;;;;;;2115511;27;20019;-68
2023/05/11 00:11:20;;;;;;;12.60;8.60;;;12.60;99.90;;;;;;2107708;27;20039;-68
2023/05/11 00:12:21;;;;;;;10.20;8.45;;;12.60;99.90;;;;;;2107093;28;20031;-69
2023/05/11 00:13:21;;;;;;;10.32;7.88;;;12.60;99.90;;;;;;2114934;27;20068;-69
2023/05/11 00:14:22;;;;;;;9.90;8.00;;;12.60;99.90;;;;;;2107340;27;20130;-69
2023/05/11 00:15:23;;;;;;;9.23;8.23;;;12.60;99.90;;;;;;2111920;27;20501;-68
2023/05/11 00:16:23;;;;;;;9.50;8.07;;;12.50;99.90;;;;;;2118506;27;20030;-68
2023/05/11 00:17:24;;;;;;;9.50;8.13;;;12.50;99.90;;;;;;2117256;27;20027;-69
2023/05/11 00:18:24;;;;;;;10.88;8.60;;;12.50;99.90;;;;;;2103825;28;20036;-66
2023/05/11 00:19:26;;;;;;;9.75;8.75;;;12.50;99.90;;;;;;2097788;28;20023;-68
2023/05/11 00:20:27;;;;;;;10.70;8.68;;;12.50;99.90;;;;;;2103076;27;20036;-68
2023/05/11 00:21:27;;;;;;;10.23;8.85;;;12.40;99.90;;;;;;2109004;27;20043;-68
2023/05/11 00:22:28;;;;;;;11.32;8.95;;;12.40;99.90;;;;;;2109476;28;20053;-68
2023/05/11 00:23:29;;;;;;;10.63;8.60;;;12.40;99.90;;;;;;2111446;27;20187;-68
2023/05/11 00:24:29;;;;;;;11.05;8.75;;;12.40;99.90;;;;;;2100298;28;20081;-68
2023/05/11 00:25:30;;;;;;;10.90;9.07;;;12.30;99.90;;;;;;2103001;28;20027;-69
2023/05/11 00:26:30;;;;;;;11.07;9.55;;;12.30;99.90;;;;;;2113999;27;20153;-69
2023/05/11 00:27:31;;;;;;;12.10;8.90;;;12.40;99.90;;;;;;2103122;28;20107;-69
2023/05/11 00:28:31;;;;;;;10.27;9.13;;;12.30;99.90;;;;;;2101264;28;20426;-68
2023/05/11 00:29:32;;;;;;;11.13;9.18;;;12.30;99.90;;;;;;2110592;27;20704;-68
2023/05/11 00:30:33;;;;;;;11.00;9.13;;;12.30;99.90;;;;;;2109145;27;20384;-69
2023/05/11 00:31:33;;;;;;;10.23;9.00;;;12.30;99.90;;;;;;2115324;27;20042;-68
2023/05/11 00:32:34;;;;;;;12.00;9.35;;;12.20;99.90;;;;;;2107693;28;20161;-69
2023/05/11 00:33:34;;;;;;;10.55;9.07;;;12.20;99.90;;;;;;2101502;28;20040;-69
2023/05/11 00:34:36;;;;;;;11.95;8.68;;;12.20;99.90;;;;;;2101155;28;20325;-69
2023/05/11 00:35:36;;;;;;;9.90;8.90;;;12.20;99.90;;;;;;2104773;27;20103;-69
2023/05/11 00:36:38;;;;;;;11.70;9.25;;;12.20;99.90;;;;;;2120371;27;20692;-68
2023/05/11 00:37:39;;;;;;;10.85;9.30;;;12.20;99.90;;;;;;2103442;28;20426;-69
2023/05/11 00:38:40;;;;;;;9.80;8.60;;;12.20;99.90;;;;;;2105679;28;20123;-69
2023/05/11 00:39:40;;;;;;;10.80;8.65;;;12.20;99.90;;;;;;2107360;28;20530;-69
2023/05/11 00:40:41;;;;;;;11.35;9.45;;;12.20;99.90;;;;;;2107556;27;20019;-68
2023/05/11 00:41:42;;;;;;;11.10;8.90;;;12.10;99.90;;;;;;2118295;27;20015;-69
2023/05/11 00:42:42;;;;;;;10.85;8.85;;;12.10;99.90;;;;;;2109632;28;20062;-68
2023/05/11 00:43:43;;;;;;;11.30;9.57;;;12.10;99.90;;;;;;2104937;27;20052;-68
2023/05/11 00:44:43;;;;;;;10.00;8.98;;;12.10;99.90;;;;;;2110233;27;20282;-69
2023/05/11 00:45:46;;;;;;;10.48;9.02;;;12.10;99.90;;;;;;2112114;27;20048;-69
2023/05/11 00:46:47;;;;;;;11.35;9.40;;;12.10;99.90;;;;;;2111751;27;20059;-68
2023/05/11 00:47:48;;;;;;;9.73;8.73;;;12.10;99.90;;;;;;2118816;27;20019;-68
2023/05/11 00:48:49;;;;;;;11.57;8.75;;;12.00;99.90;;;;;;2121673;27;20283;-69
2023/05/11 00:49:52;;;;;;;9.85;8.80;;;12.10;99.90;;;;;;2121580;27;20030;-68
2023/05/11 00:50:53;;;;;;;10.50;8.73;;;12.10;99.90;;;;;;2121368;27;20137;-68
2023/05/11 00:51:54;;;;;;;10.07;8.95;;;12.00;99.90;;;;;;2117957;27;20030;-68
2023/05/11 00:52:56;;;;;;;9.93;8.77;;;12.00;99.90;;;;;;2110961;27;20056;-69
2023/05/11 00:53:57;;;;;;;11.00;9.10;;;12.00;99.90;;;;;;2111775;27;20022;-68
2023/05/11 00:54:58;;;;;;;9.90;8.82;;;12.00;99.90;;;;;;2119784;27;20019;-69
2023/05/11 00:55:59;;;;;;;10.82;8.93;;;12.00;99.90;;;;;;2113277;27;20581;-69
2023/05/11 00:57:00;;;;;;;10.63;9.25;;;12.00;99.90;;;;;;2122681;27;20027;-69
2023/05/11 00:58:04;;;;;;;10.13;8.98;;;12.00;99.90;;;;;;2112785;27;20066;-69
2023/05/11 00:59:04;;;;;;;10.45;8.63;;;12.00;99.90;;;;;;2109225;27;20023;-69
2023/05/11 01:00:06;;;;;;;11.90;9.40;;;12.00;99.90;;;;;;2121654;27;20520;-69
2023/05/11 01:01:06;;;;;;;11.65;9.38;;;12.00;99.90;;;;;;2121929;27;20117;-69
2023/05/11 01:02:07;;;;;;;9.60;8.60;;;12.00;99.90;;;;;;2117256;27;20031;-69
2023/05/11 01:03:08;;;;;;;10.90;8.77;;;12.00;99.90;;;;;;2120355;27;20035;-68
2023/05/11 01:04:09;;;;;;;10.25;8.77;;;12.00;99.90;;;;;;2118976;27;20517;-68
2023/05/11 01:05:10;;;;;;;10.13;9.02;;;12.00;99.90;;;;;;2116600;27;20027;-68
2023/05/11 01:06:23;;;;;;;11.00;9.00;;;11.90;99.90;;;;;;2103044;27;20032;-68
2023/05/11 01:07:33;;;;;;;11.70;9.10;;;11.90;99.90;;;;;;2104045;27;20141;-68
2023/05/11 01:08:55;;;;;;;10.98;9.30;;;11.90;99.90;;;;;;2116837;27;20072;-69
2023/05/11 01:10:28;;;;;;;10.63;8.60;;;11.90;99.90;;;;;;2113723;27;20069;-68
2023/05/11 01:11:49;;;;;;;11.15;8.82;;;11.90;99.90;;;;;;2105190;28;20430;-69
2023/05/11 01:13:15;;;;;;;;;;;11.90;99.90;;;;;;2099800;28;20031;-69
2023/05/11 01:14:19;;;;;;;11.10;9.50;;;11.90;99.90;;;;;;2109937;27;19960;-69
2023/05/11 01:15:36;;;;;;;10.80;9.23;;;11.90;99.90;;;;;;2101941;28;20109;-69
2023/05/11 01:16:41;;;;;;;11.95;9.23;;;11.90;99.90;;;;;;2103158;28;20103;-69
2023/05/11 01:17:51;;;;;;;10.60;9.50;;;11.80;99.90;;;;;;2100908;28;20074;-69
2023/05/11 01:19:09;;;;;;;11.07;8.90;;;11.80;99.90;;;;;;2107136;27;20027;-69
2023/05/11 01:20:16;;;;;;;11.38;9.40;;;11.80;99.90;;;;;;2114046;27;20039;-69
2023/05/11 01:21:17;;;;;;;10.43;9.18;;;11.80;99.90;;;;;;2111591;27;20035;-69
2023/05/11 01:22:41;;;;;;;12.00;9.43;;;11.80;99.90;;;;;;2101571;28;20542;-69
2023/05/11 01:24:18;;;;;;;12.25;9.40;;;11.80;99.90;;;;;;2108813;27;20403;-69
2023/05/11 01:25:52;;;;;;;10.95;9.55;;;11.70;99.90;;;;;;2116984;27;20081;-68
2023/05/11 01:27:14;;;;;;;10.15;8.98;;;11.70;99.90;;;;;;2117549;27;20465;-69
2023/05/11 01:28:28;;;;;;;11.05;9.30;;;11.70;99.90;;;;;;2103136;28;20027;-68
2023/05/11 01:29:43;;;;;;;11.32;9.25;;;11.70;99.90;;;;;;2097242;28;20060;-69
2023/05/11 01:30:48;;;;;;;11.50;9.60;;;11.70;99.90;;;;;;2095427;28;20092;-69
2023/05/11 01:31:52;;;;;;;13.77;9.90;;;11.70;99.90;;;;;;2096701;28;20020;-68
2023/05/11 01:33:02;;;;;;;11.15;9.32;;;11.60;99.90;;;;;;2112195;27;20054;-69
2023/05/11 01:34:08;;;;;;;10.93;9.23;;;11.60;99.90;;;;;;2104988;28;20019;-69
2023/05/11 01:35:18;;;;;;;10.32;9.10;;;11.60;99.90;;;;;;2098016;28;20050;-68
2023/05/11 01:36:24;;;;;;;10.27;9.20;;;11.60;99.90;;;;;;2105206;28;20066;-68
2023/05/11 01:37:26;;;;;;;11.18;9.52;;;11.60;99.90;;;;;;2112705;27;20554;-69
2023/05/11 01:38:32;;;;;;;10.82;9.15;;;11.60;99.90;;;;;;2113696;27;20080;-69
2023/05/11 01:39:41;;;;;;;11.30;9.57;;;11.60;99.90;;;;;;2108724;27;20432;-69
2023/05/11 01:40:46;;;;;;;10.95;9.10;;;11.50;99.90;;;;;;2105771;27;20056;-68
2023/05/11 01:41:52;;;;;;;10.68;9.18;;;11.50;99.90;;;;;;2110680;27;20534;-68
2023/05/11 01:42:58;;;;;;;12.15;9.43;;;11.50;99.90;;;;;;2102611;27;20270;-68
2023/05/11 01:44:04;;;;;;;12.82;9.35;;;11.50;99.90;;;;;;2101591;27;20024;-70
2023/05/11 01:45:10;;;;;;;11.32;9.52;;;11.50;99.90;;;;;;2094496;28;20595;-70
2023/05/11 01:46:12;;;;;;;11.55;9.57;;;11.50;99.90;;;;;;2107692;27;20036;-68
2023/05/11 01:47:15;;;;;;;10.38;9.15;;;11.40;99.90;;;;;;2100325;28;20028;-67
2023/05/11 01:48:20;;;;;;;11.35;9.50;;;11.40;99.90;;;;;;2093980;28;20041;-68
2023/05/11 01:49:21;;;;;;;14.52;9.93;;;11.40;99.90;;;;;;2102256;27;20427;-69
2023/05/11 01:50:24;;;;;;;11.00;9.90;;;11.40;99.90;;;;;;2105349;28;20576;-68
2023/05/11 01:51:27;;;;;;;11.43;9.00;;;11.40;99.90;;;;;;2107208;28;20043;-68
2023/05/11 01:52:33;;;;;;;9.82;8.82;;;11.40;99.90;;;;;;2107521;27;20059;-69
2023/05/11 01:53:37;;;;;;;10.63;8.93;;;11.40;99.90;;;;;;2095841;28;20214;-69
2023/05/11 01:54:39;;;;;;;10.95;9.20;;;11.40;99.90;;;;;;2104523;27;20087;-68
2023/05/11 01:55:40;;;;;;;10.35;9.23;;;11.40;99.90;;;;;;2107231;28;20593;-69
2023/05/11 01:56:43;;;;;;;10.85;9.23;;;11.40;99.90;;;;;;2108845;27;20594;-68
2023/05/11 01:57:45;;;;;;;10.80;8.93;;;11.40;99.90;;;;;;2117091;27;20061;-68
2023/05/11 01:58:48;;;;;;;10.85;8.80;;;11.40;99.90;;;;;;2104535;27;20024;-68
2023/05/11 01:59:54;;;;;;;11.57;8.80;;;11.40;99.90;;;;;;2102254;28;20031;-68
2023/05/11 02:00:56;;;;;;;10.43;8.90;;;11.40;99.90;;;;;;2103300;27;20185;-68
2023/05/11 02:01:57;;;;;;;10.80;8.73;;;11.40;99.90;;;;;;2114060;27;20023;-68
2023/05/11 02:03:01;;;;;;;12.13;9.20;;;11.40;99.90;;;;;;2111283;27;20437;-68
2023/05/11 02:04:03;;;;;;;10.05;8.85;;;11.40;99.90;;;;;;2099102;28;20028;-68
2023/05/11 02:05:05;;;;;;;9.93;8.60;;;11.40;99.90;;;;;;2108003;27;20031;-68
2023/05/11 02:06:08;;;;;;;10.52;8.75;;;11.40;99.90;;;;;;2107550;27;20881;-68
2023/05/11 02:07:12;;;;;;;10.10;9.00;;;11.40;99.90;;;;;;2108090;27;20031;-68
2023/05/11 02:08:15;;;;;;;11.50;8.95;;;11.40;99.90;;;;;;2105798;27;20077;-69
2023/05/11 02:09:17;;;;;;;10.75;8.65;;;11.40;99.90;;;;;;2095075;28;20320;-68
2023/05/11 02:10:18;;;;;;;10.23;9.13;;;11.40;99.90;;;;;;2098710;28;20116;-69
2023/05/11 02:11:22;;;;;;;11.23;9.10;;;11.40;99.90;;;;;;2100878;28;20024;-69
2023/05/11 02:12:25;;;;;;;10.40;9.10;;;11.40;99.90;;;;;;2102317;28;20521;-69
2023/05/11 02:13:27;;;;;;;11.07;8.95;;;11.40;99.90;;;;;;2098840;28;20471;-69
2023/05/11 02:14:32;;;;;;;9.98;8.75;;;11.40;99.90;;;;;;2098760;28;20249;-69
2023/05/11 02:15:40;;;;;;;10.02;8.32;;;11.40;99.90;;;;;;2096803;28;20081;-69
2023/05/11 02:16:41;;;;;;;10.55;9.10;;;11.40;99.90;;;;;;2102969;27;20027;-69
2023/05/11 02:17:42;;;;;;;10.30;8.27;;;11.30;99.90;;;;;;2110853;27;20130;-69
2023/05/11 02:18:44;;;;;;;10.15;8.13;;;11.40;99.90;;;;;;2110553;27;20042;-69
2023/05/11 02:19:46;;;;;;;10.23;8.07;;;11.40;99.90;;;;;;2105681;28;20081;-68
2023/05/11 02:20:48;;;;;;;9.63;8.15;;;11.30;99.90;;;;;;2103545;28;20402;-68
2023/05/11 02:21:53;;;;;;;9.75;8.50;;;11.30;99.90;;;;;;2109497;27;20496;-68
2023/05/11 02:22:55;;;;;;;9.30;8.38;;;11.30;99.90;;;;;;2103523;28;20039;-68
2023/05/11 02:23:57;;;;;;;10.85;8.48;;;11.30;99.90;;;;;;2109388;27;20074;-68
2023/05/11 02:24:57;;;;;;;10.68;8.63;;;11.30;99.90;;;;;;2119174;27;20030;-68
2023/05/11 02:25:59;;;;;;;9.10;8.20;;;11.30;99.90;;;;;;2110621;27;20203;-68
2023/05/11 02:26:59;;;;;;;9.35;8.35;;;11.20;99.90;;;;;;2103961;27;20126;-69
2023/05/11 02:28:00;;;;;;;10.73;8.35;;;11.20;99.90;;;;;;2103048;27;20418;-68
2023/05/11 02:29:02;;;;;;;11.95;9.07;;;11.20;99.90;;;;;;2101896;28;20479;-69
2023/05/11 02:30:04;;;;;;;9.40;8.40;;;11.20;99.90;;;;;;2105082;28;20062;-69
2023/05/11 02:31:11;;;;;;;9.23;8.23;;;11.20;99.90;;;;;;2106915;28;20687;-69
2023/05/11 02:32:16;;;;;;;9.25;8.32;;;11.20;99.90;;;;;;2099466;28;20036;-69
2023/05/11 02:33:24;;;;;;;10.85;8.65;;;11.20;99.90;;;;;;2095000;28;20024;-69
2023/05/11 02:34:28;;;;;;;9.25;8.23;;;11.20;99.90;;;;;;2103018;28;20069;-69
2023/05/11 02:35:35;;;;;;;9.95;8.55;;;11.10;99.90;;;;;;2111701;27;20046;-68
2023/05/11 02:36:37;;;;;;;9.18;8.13;;;11.10;99.90;;;;;;2097885;28;20467;-68
2023/05/11 02:37:42;;;;;;;9.43;8.25;;;11.10;99.90;;;;;;2100680;28;20016;-68
2023/05/11 02:38:46;;;;;;;9.63;8.60;;;11.10;99.90;;;;;;2103518;27;20221;-68
2023/05/11 02:39:56;;;;;;;10.27;8.85;;;11.00;99.90;;;;;;2104716;27;20028;-69
2023/05/11 02:41:03;;;;;;;9.88;8.43;;;11.00;99.90;;;;;;2110320;27;20034;-69
2023/05/11 02:42:14;;;;;;;12.45;8.90;;;11.00;99.90;;;;;;2104327;28;20135;-69
2023/05/11 02:43:22;;;;;;;11.30;8.45;;;11.00;99.90;;;;;;2101654;28;20270;-68
2023/05/11 02:44:33;;;;;;;10.23;9.15;;;11.00;99.90;;;;;;2108063;27;20537;-69
2023/05/11 02:45:35;;;;;;;10.32;8.35;;;10.90;99.90;;;;;;2103735;27;20558;-69
2023/05/11 02:46:38;;;;;;;12.93;8.82;;;10.90;99.90;;;;;;2117638;27;20513;-68
2023/05/11 02:47:50;;;;;;;9.75;8.38;;;10.90;99.90;;;;;;2113202;27;20298;-68
2023/05/11 02:48:59;;;;;;;9.50;8.50;;;10.90;99.90;;;;;;2112422;27;20095;-68
2023/05/11 02:50:03;;;;;;;10.55;8.45;;;10.80;99.90;;;;;;2104338;27;20024;-68
2023/05/11 02:51:09;;;;;;;9.80;8.77;;;10.80;99.90;;;;;;2104342;28;20439;-69
2023/05/11 02:52:16;;;;;;;10.02;8.95;;;10.80;99.90;;;;;;2096628;28;20043;-68
2023/05/11 02:53:21;;;;;;;9.93;8.88;;;10.80;99.90;;;;;;2093819;28;20032;-70
2023/05/11 02:54:23;;;;;;;13.63;9.15;;;10.80;99.90;;;;;;2103881;28;20495;-70
2023/05/11 02:55:27;;;;;;;9.85;8.82;;;10.80;99.90;;;;;;2100582;28;20135;-69
2023/05/11 02:56:28;;;;;;;11.25;9.23;;;10.80;99.90;;;;;;2103597;27;20032;-69
2023/05/11 02:57:30;;;;;;;9.88;8.88;;;10.80;99.90;;;;;;2110416;27;20517;-70
2023/05/11 02:58:35;;;;;;;10.70;9.60;;;10.80;99.90;;;;;;2094283;28;20025;-69
2023/05/11 02:59:48;;;;;;;12.90;8.85;;;10.80;99.90;;;;;;2089271;28;20034;-69
2023/05/11 03:00:50;;;;;;;10.05;8.93;;;10.70;99.90;;;;;;2094294;28;20335;-69
2023/05/11 03:01:51;;;;;;;10.05;8.88;;;10.70;99.90;;;;;;2097203;28;20111;-69
2023/05/11 03:02:52;;;;;;;10.35;9.05;;;10.80;99.90;;;;;;2104978;28;20066;-69
2023/05/11 03:03:56;;;;;;;10.70;8.68;;;10.70;99.90;;;;;;2107138;27;20549;-70
2023/05/11 03:04:59;;;;;;;10.57;9.48;;;10.70;99.90;;;;;;2103395;28;20204;-68
2023/05/11 03:05:59;;;;;;;10.15;9.10;;;10.70;99.90;;;;;;2111697;27;20435;-69
2023/05/11 03:07:01;;;;;;;11.07;8.80;;;10.70;99.90;;;;;;2112884;27;20030;-69
2023/05/11 03:08:02;;;;;;;10.00;8.82;;;10.70;99.90;;;;;;2107355;28;20486;-69
2023/05/11 03:09:05;;;;;;;11.00;9.27;;;10.70;99.90;;;;;;2109436;27;20103;-67
2023/05/11 03:10:07;;;;;;;12.32;9.43;;;10.70;99.90;;;;;;2094570;28;20432;-70
2023/05/11 03:11:14;;;;;;;10.15;8.88;;;10.70;99.90;;;;;;2097586;27;20067;-70
2023/05/11 03:12:14;;;;;;;9.60;8.60;;;10.80;99.90;;;;;;2110458;27;20488;-69
2023/05/11 03:13:16;;;;;;;11.15;9.48;;;10.80;99.90;;;;;;2121983;27;20035;-69
2023/05/11 03:14:17;;;;;;;11.27;9.38;;;10.80;99.90;;;;;;2120660;27;20027;-69
2023/05/11 03:15:20;;;;;;;10.45;9.20;;;10.80;99.90;;;;;;2104605;27;20111;-69
2023/05/11 03:16:23;;;;;;;10.50;9.40;;;10.70;99.90;;;;;;2099741;28;20133;-68
2023/05/11 03:17:24;;;;;;;10.93;9.32;;;10.80;99.90;;;;;;2103044;28;20530;-68
2023/05/11 03:18:25;;;;;;;10.70;9.43;;;10.80;99.90;;;;;;2117154;27;20026;-69
2023/05/11 03:19:27;;;;;;;10.15;9.15;;;10.80;99.90;;;;;;2117745;27;20324;-70
2023/05/11 03:20:29;;;;;;;13.27;9.85;;;10.80;99.90;;;;;;2119440;27;20118;-68
2023/05/11 03:21:31;;;;;;;12.13;9.35;;;10.80;99.90;;;;;;2118968;27;20027;-69
2023/05/11 03:22:32;;;;;;;10.57;9.48;;;10.80;99.90;;;;;;2109842;28;20035;-69
2023/05/11 03:23:34;;;;;;;9.95;8.95;;;10.80;99.90;;;;;;2101694;28;20047;-69
2023/05/11 03:24:36;;;;;;;10.25;9.23;;;10.80;99.90;;;;;;2096956;28;20025;-69
2023/05/11 03:25:37;;;;;;;11.52;9.30;;;10.80;99.90;;;;;;2096424;28;20025;-69
2023/05/11 03:26:40;;;;;;;13.00;9.68;;;10.80;99.90;;;;;;2110934;27;21087;-69
2023/05/11 03:27:42;;;;;;;10.63;9.52;;;10.80;99.90;;;;;;2102919;28;20102;-69
2023/05/11 03:28:44;;;;;;;11.65;9.10;;;10.80;99.90;;;;;;2094317;28;20028;-69
2023/05/11 03:29:47;;;;;;;10.63;9.32;;;10.80;99.90;;;;;;2100100;28;20483;-69
2023/05/11 03:30:50;;;;;;;11.57;9.68;;;10.80;99.90;;;;;;2104309;28;20027;-69
2023/05/11 03:31:51;;;;;;;11.82;9.07;;;10.80;99.90;;;;;;2110297;27;20019;-69
2023/05/11 03:32:53;;;;;;;9.68;8.68;;;10.80;99.90;;;;;;2108030;27;20070;-69
2023/05/11 03:33:54;;;;;;;10.93;8.98;;;10.80;99.90;;;;;;2102136;28;20036;-68
2023/05/11 03:34:54;;;;;;;10.30;9.07;;;10.80;99.90;;;;;;2122058;27;20023;-69
2023/05/11 03:35:57;;;;;;;11.85;9.10;;;10.90;99.90;;;;;;2115860;27;20361;-68
2023/05/11 03:36:59;;;;;;;10.73;8.75;;;10.90;99.90;;;;;;2107313;28;20023;-69
2023/05/11 03:38:02;;;;;;;11.75;9.35;;;10.90;99.90;;;;;;2100121;28;20032;-69
2023/05/11 03:39:04;;;;;;;12.82;9.43;;;10.90;99.90;;;;;;2104274;28;20038;-68
2023/05/11 03:40:08;;;;;;;11.05;8.75;;;10.90;99.90;;;;;;2100138;27;20042;-69
2023/05/11 03:41:20;;;;;;;10.15;8.90;;;10.90;99.90;;;;;;2099041;28;20394;-68
2023/05/11 03:42:26;;;;;;;10.45;8.50;;;11.00;99.90;;;;;;2097790;28;20024;-69
2023/05/11 03:43:30;;;;;;;11.40;8.60;;;11.00;99.90;;;;;;2094823;28;20032;-69
2023/05/11 03:44:32;;;;;;;10.70;8.70;;;11.00;99.90;;;;;;2104290;27;20043;-69
2023/05/11 03:45:34;;;;;;;10.55;8.90;;;11.00;99.90;;;;;;2119214;27;20122;-69
2023/05/11 03:46:43;;;;;;;9.80;8.80;;;11.00;99.90;;;;;;2103534;28;20553;-69
2023/05/11 03:47:46;;;;;;;10.07;8.25;;;11.00;99.90;;;;;;2104391;28;20043;-68
2023/05/11 03:48:48;;;;;;;9.82;8.80;;;11.10;99.90;;;;;;2114442;27;20208;-68
2023/05/11 03:49:55;;;;;;;13.50;9.27;;;11.10;99.90;;;;;;2102101;28;20068;-70
2023/05/11 03:50:55;;;;;;;11.13;9.40;;;11.20;99.90;;;;;;2100927;27;20042;-69
2023/05/11 03:51:56;;;;;;;11.13;9.13;;;11.20;99.90;;;;;;2109217;27;20030;-68
2023/05/11 03:52:59;;;;;;;11.77;9.80;;;11.20;99.90;;;;;;2112978;27;20564;-69
2023/05/11 03:54:01;;;;;;;13.30;9.35;;;11.30;99.90;;;;;;2114699;27;20448;-69
2023/05/11 03:55:03;;;;;;;10.65;8.80;;;11.30;99.90;;;;;;2111964;27;20020;-69
2023/05/11 03:56:06;;;;;;;10.25;8.77;;;11.30;99.90;;;;;;2111512;27;20015;-69
2023/05/11 03:57:08;;;;;;;10.73;9.13;;;11.40;99.90;;;;;;2109225;27;20032;-69
2023/05/11 03:58:10;;;;;;;11.02;8.75;;;11.50;99.90;;;;;;2091250;28;20029;-69
2023/05/11 03:59:15;;;;;;;11.77;8.65;;;11.50;99.90;;;;;;2095952;28;20024;-69
2023/05/11 04:00:16;;;;;;;9.50;8.43;;;11.60;99.90;;;;;;2087918;28;20411;-69
2023/05/11 04:01:17;;;;;;;11.10;8.73;;;11.60;99.90;;;;;;2088990;28;20598;-69
2023/05/11 04:02:20;;;;;;;10.75;8.02;;;11.70;99.90;;;;;;2097158;28;20543;-74
2023/05/11 04:03:21;;;;;;;10.35;8.45;;;11.70;99.90;;;;;;2099997;28;20039;-69
2023/05/11 04:04:29;;;;;;;9.68;7.95;;;11.80;99.90;;;;;;2082816;28;20438;-68
2023/05/11 04:05:32;;;;;;;9.23;8.23;;;11.90;99.90;;;;;;2081278;28;20024;-75
2023/05/11 04:06:35;;;;;;;9.25;7.90;;;11.90;99.90;;;;;;2083309;28;20033;-68
2023/05/11 04:07:49;;;;;;;9.52;8.43;;;12.00;99.90;;;;;;2083868;28;20111;-69
2023/05/11 04:08:50;;;;;;;8.88;7.97;;;12.00;99.90;;;;;;2080043;28;20087;-68
2023/05/11 04:09:50;;;;;;;9.15;8.15;;;12.00;99.90;;;;;;2086771;28;20078;-69
2023/05/11 04:10:51;;;;;;;8.50;7.70;;;12.10;99.90;;;;;;2100499;28;20036;-69
2023/05/11 04:11:52;;;;;;;9.40;8.20;;;12.20;99.90;;;;;;2099390;28;20032;-68
2023/05/11 04:12:53;;;;;;;8.68;7.80;;;12.20;99.90;;;;;;2086392;28;20033;-69
2023/05/11 04:13:54;;;;;;;9.85;7.68;;;12.30;99.90;;;;;;2081255;28;20031;-68
2023/05/11 04:14:54;;;;;;;8.68;7.15;;;12.40;99.90;;;;;;2082433;28;20484;-68
2023/05/11 04:15:55;;;;;;;8.50;7.60;;;12.40;99.90;;;;;;2080890;28;20128;-68
2023/05/11 04:16:55;;;;;;;7.95;7.00;;;12.50;99.90;;;;;;2082290;28;20104;-69
2023/05/11 04:17:56;;;;;;;8.10;7.22;;;12.70;99.90;;;;;;2080982;28;20061;-69
2023/05/11 04:18:57;;;;;;;11.80;7.43;;;12.80;99.90;;;;;;2091351;28;20025;-70
2023/05/11 04:19:57;;;;;;;8.75;7.13;;;13.00;99.90;;;;;;2100392;28;20035;-67
2023/05/11 04:20:58;;;;;;;10.45;7.40;;;13.20;99.90;;;;;;2091096;28;20139;-68
2023/05/11 04:22:00;;;;;;;9.25;7.22;;;13.40;99.90;;;;;;2078320;28;20060;-69
2023/05/11 04:23:00;;;;;;;7.53;6.60;;;13.60;99.90;;;;;;2082990;28;20443;-68
2023/05/11 04:24:01;;;;;;;9.98;7.05;;;13.90;99.90;;;;;;2091421;28;20024;-69
2023/05/11 04:25:03;;;;;;;8.57;6.63;;;14.20;99.90;;;;;;2097658;28;20098;-69
2023/05/11 04:26:03;;;;;;;10.90;6.78;;;14.40;99.90;;;;;;2097746;28;20593;-68
2023/05/11 04:27:04;;;;;;;12.15;6.90;;;14.60;99.90;;;;;;2097764;28;20051;-68
2023/05/11 04:28:04;;;;;;;8.65;6.63;;;14.70;99.90;;;;;;2090762;28;20883;-68
2023/05/11 04:29:05;;;;;;;9.23;6.40;;;14.70;99.90;;;;;;2088866;28;20028;-68
2023/05/11 04:30:06;;;;;;;10.27;6.25;;;14.80;99.90;;;;;;2086330;28;20060;-68
2023/05/11 04:31:07;;;;;;;9.02;7.07;;;14.80;99.90;;;;;;2086291;28;20020;-69
2023/05/11 04:32:07;;;;;;;8.80;6.40;;;14.80;99.90;;;;;;2090208;28;20052;-70
2023/05/11 04:33:08;;;;;;;7.78;6.50;;;14.80;99.90;;;;;;2084787;28;20055;-70
2023/05/11 04:34:08;;;;;;;9.70;6.57;;;14.80;99.90;;;;;;2079634;28;20029;-71
2023/05/11 04:35:10;;;;;;;8.77;6.45;;;14.80;99.90;;;;;;2082555;28;20036;-70
2023/05/11 04:36:12;;;;;;;11.15;6.60;;;14.80;99.90;;;;;;2082790;28;20670;-70
2023/05/11 04:37:13;;;;;;;7.63;6.13;;;14.80;99.90;;;;;;2093260;28;20040;-72
2023/05/11 04:38:16;;;;;;;8.10;6.10;;;14.90;99.90;;;;;;2100218;28;20035;-72
2023/05/11 04:39:17;;;;;;;8.75;6.43;;;14.90;99.90;;;;;;2090714;28;20119;-71
2023/05/11 04:40:18;;;;;;;7.20;5.97;;;15.00;99.90;;;;;;2078179;28;20026;-71
2023/05/11 04:41:19;;;;;;;7.90;6.95;;;15.10;99.90;;;;;;2082776;28;20057;-71
2023/05/11 04:42:20;;;;;;;10.60;8.32;;;15.10;99.90;;;;;;2082810;28;20059;-71
2023/05/11 04:43:24;;;;;;;8.77;7.25;;;15.20;99.90;;;;;;2091563;28;20033;-70
2023/05/11 04:44:25;;;;;;;8.55;6.97;;;15.20;99.90;;;;;;2097387;28;20469;-70
2023/05/11 04:45:25;;;;;;;9.82;6.65;;;15.30;99.90;;;;;;2096699;28;20120;-72
2023/05/11 04:46:26;;;;;;;9.70;6.65;;;15.30;99.90;;;;;;2087833;28;20043;-70
2023/05/11 04:47:26;;;;;;;7.53;5.85;;;15.30;99.90;;;;;;2087684;28;20035;-70
2023/05/11 04:48:27;;;;;;;8.93;6.97;;;15.30;99.90;;;;;;2088670;28;20127;-70
2023/05/11 04:49:28;;;;;;;8.55;6.90;;;15.30;99.90;;;;;;2077998;28;20039;-70
2023/05/11 04:50:29;;;;;;;9.30;7.32;;;15.30;99.90;;;;;;2078449;28;20192;-71
2023/05/11 04:51:31;;;;;;;13.10;7.15;;;15.40;99.90;;;;;;2083138;28;20082;-71
2023/05/11 04:52:33;;;;;;;9.82;7.05;;;15.40;99.90;;;;;;2085375;28;20029;-70
2023/05/11 04:53:33;;;;;;;18.17;8.18;;;15.50;99.90;;;;;;2082829;28;20054;-70
2023/05/11 04:54:35;;;;;;;10.57;6.70;;;15.60;99.90;;;;;;2084057;28;20044;-70
2023/05/11 04:55:36;;;;;;;14.60;10.85;;;15.80;99.90;;;;;;2089195;28;20036;-71
2023/05/11 04:56:39;;;;;;;13.70;9.85;;;16.00;99.90;;;;;;2088981;28;20557;-71
2023/05/11 04:57:40;;;;;;;11.73;8.82;;;16.20;99.90;;;;;;2080078;28;20041;-71
2023/05/11 04:58:41;;;;;;;11.82;7.95;;;16.40;99.90;;;;;;2079917;28;20657;-71
2023/05/11 04:59:42;;;;;;;8.45;7.20;;;16.70;99.90;;;;;;2088581;28;20035;-71
2023/05/11 05:00:45;;;;;;;10.38;8.23;;;17.10;99.90;;;;;;2091090;28;20025;-71
2023/05/11 05:01:46;;;;;;;13.35;9.48;;;17.30;99.90;;;;;;2094868;28;20100;-70
2023/05/11 05:02:47;;;;;;;13.73;9.63;;;17.60;99.90;;;;;;2099160;28;20036;-71
2023/05/11 05:03:48;;;;;;;9.95;8.10;;;17.90;99.90;;;;;;2094624;28;20032;-70
2023/05/11 05:04:49;;;;;;;9.18;6.65;;;18.20;99.90;;;;;;2099651;28;20082;-70
2023/05/11 05:05:49;;;;;;;10.50;8.20;;;18.40;99.90;;;;;;2106442;28;20024;-70
2023/05/11 05:06:50;;;;;;;12.45;11.18;;;18.60;99.90;;;;;;2098893;28;20035;-71
2023/05/11 05:07:50;;;;;;;11.30;8.90;;;18.60;99.90;;;;;;2090499;28;20033;-70
2023/05/11 05:08:51;;;;;;;8.50;6.82;;;18.60;99.80;;;;;;2090805;28;20028;-71
2023/05/11 05:09:52;;;;;;;7.65;5.60;;;18.60;98.90;;;;;;2083127;28;20021;-72
2023/05/11 05:10:53;;;;;;;6.72;5.65;;;18.50;98.90;;;;;;2096005;28;20049;-72
2023/05/11 05:11:53;;;;;;;10.93;5.80;;;18.50;98.90;;;;;;2094358;28;20029;-71
2023/05/11 05:12:54;;;;;;;9.70;6.10;;;18.40;99.30;;;;;;2090584;28;20075;-71
2023/05/11 05:13:55;;;;;;;12.88;7.60;;;18.30;99.90;;;;;;2100095;28;20024;-71
2023/05/11 05:14:56;;;;;;;9.80;6.40;;;18.20;99.30;;;;;;2092879;28;20025;-71
2023/05/11 05:15:56;;;;;;;7.82;5.90;;;18.20;99.60;;;;;;2095897;28;20116;-71
2023/05/11 05:16:59;;;;;;;7.57;5.82;;;18.10;99.60;;;;;;2097162;28;20305;-71
2023/05/11 05:18:00;;;;;;;10.23;5.90;;;18.00;99.90;;;;;;2090049;28;20342;-70
2023/05/11 05:19:01;;;;;;;6.28;5.43;;;17.80;99.90;;;;;;2092447;28;20105;-70
2023/05/11 05:20:05;;;;;;;7.93;7.03;;;17.80;99.90;;;;;;2096341;28;20028;-71
2023/05/11 05:21:06;;;;;;;9.10;7.00;;;17.80;99.90;;;;;;2103492;28;20035;-71
2023/05/11 05:22:07;;;;;;;9.35;6.68;;;17.80;99.90;;;;;;2095494;28;20059;-71
2023/05/11 05:23:08;;;;;;;8.13;6.35;;;17.70;99.90;;;;;;2090377;28;20288;-71
2023/05/11 05:24:10;;;;;;;9.82;6.90;;;17.50;99.90;;;;;;2095487;28;20039;-71
2023/05/11 05:25:11;;;;;;;6.55;5.90;;;17.40;99.90;;;;;;2097145;28;20487;-70
2023/05/11 05:26:12;;;;;;;7.60;6.07;;;17.40;99.90;;;;;;2094767;28;20033;-70